sensor_id;sensor_type;location;lat;lon;timestamp;P1;durP1;ratioP1;P2;durP2;ratioP2
68216;SDS011;55037;52.354;4.992;2024-03-02T00:00:15;3.55;;;1.20;;
68216;SDS011;55037;52.354;4.992;2024-03-02T00:02:45;2.88;;;1.10;;
68216;SDS011;55037;52.354;4.992;2024-03-02T00:05:13;2.73;;;1.33;;
68216;SDS011;55037;52.354;4.992;2024-03-02T00:07:42;2.20;;;1.20;;
68216;SDS011;55037;52.354;4.992;2024-03-02T00:10:10;1.65;;;0.98;;
68216;SDS011;55037;52.354;4.992;2024-03-02T00:12:38;1.70;;;1.00;;
68216;SDS011;55037;52.354;4.992;2024-03-02T00:15:07;2.10;;;1.05;;
68216;SDS011;55037;52.354;4.992;2024-03-02T00:17:52;1.93;;;1.00;;
68216;SDS011;55037;52.354;4.992;2024-03-02T00:20:21;1.95;;;0.80;;
68216;SDS011;55037;52.354;4.992;2024-03-02T00:22:49;2.00;;;1.13;;
68216;SDS011;55037;52.354;4.992;2024-03-02T00:25:17;1.48;;;1.05;;
68216;SDS011;55037;52.354;4.992;2024-03-02T00:27:48;1.67;;;0.80;;
68216;SDS011;55037;52.354;4.992;2024-03-02T00:30:32;1.20;;;0.80;;
68216;SDS011;55037;52.354;4.992;2024-03-02T00:33:06;1.40;;;0.70;;
68216;SDS011;55037;52.354;4.992;2024-03-02T00:35:34;1.20;;;0.70;;
68216;SDS011;55037;52.354;4.992;2024-03-02T00:38:04;1.10;;;0.70;;
68216;SDS011;55037;52.354;4.992;2024-03-02T00:40:35;1.23;;;0.80;;
68216;SDS011;55037;52.354;4.992;2024-03-02T00:43:03;1.10;;;0.70;;
68216;SDS011;55037;52.354;4.992;2024-03-02T00:45:30;1.35;;;0.60;;
68216;SDS011;55037;52.354;4.992;2024-03-02T00:47:58;1.05;;;0.70;;
68216;SDS011;55037;52.354;4.992;2024-03-02T00:50:25;1.23;;;0.60;;
68216;SDS011;55037;52.354;4.992;2024-03-02T00:52:57;1.20;;;0.80;;
68216;SDS011;55037;52.354;4.992;2024-03-02T00:55:24;1.50;;;0.80;;
68216;SDS011;55037;52.354;4.992;2024-03-02T00:57:52;1.00;;;0.60;;
68216;SDS011;55037;52.354;4.992;2024-03-02T01:00:19;1.15;;;0.70;;
68216;SDS011;55037;52.354;4.992;2024-03-02T01:02:47;1.15;;;0.73;;
68216;SDS011;55037;52.354;4.992;2024-03-02T01:05:15;2.28;;;0.60;;
68216;SDS011;55037;52.354;4.992;2024-03-02T01:07:43;1.40;;;0.70;;
68216;SDS011;55037;52.354;4.992;2024-03-02T01:10:10;1.15;;;0.80;;
68216;SDS011;55037;52.354;4.992;2024-03-02T01:12:38;1.67;;;0.70;;
68216;SDS011;55037;52.354;4.992;2024-03-02T01:15:06;1.45;;;0.88;;
68216;SDS011;55037;52.354;4.992;2024-03-02T01:17:34;1.35;;;0.68;;
68216;SDS011;55037;52.354;4.992;2024-03-02T01:20:02;1.40;;;0.93;;
68216;SDS011;55037;52.354;4.992;2024-03-02T01:22:30;1.10;;;0.68;;
68216;SDS011;55037;52.354;4.992;2024-03-02T01:24:57;1.17;;;0.70;;
68216;SDS011;55037;52.354;4.992;2024-03-02T01:27:25;1.17;;;0.70;;
68216;SDS011;55037;52.354;4.992;2024-03-02T01:29:53;1.10;;;0.70;;
68216;SDS011;55037;52.354;4.992;2024-03-02T01:32:21;1.53;;;0.80;;
68216;SDS011;55037;52.354;4.992;2024-03-02T01:34:48;1.88;;;0.93;;
68216;SDS011;55037;52.354;4.992;2024-03-02T01:37:16;1.20;;;0.90;;
68216;SDS011;55037;52.354;4.992;2024-03-02T01:39:44;2.05;;;1.00;;
68216;SDS011;55037;52.354;4.992;2024-03-02T01:42:11;1.30;;;0.80;;
68216;SDS011;55037;52.354;4.992;2024-03-02T01:44:39;1.23;;;0.70;;
68216;SDS011;55037;52.354;4.992;2024-03-02T01:47:09;1.42;;;1.00;;
68216;SDS011;55037;52.354;4.992;2024-03-02T01:49:37;1.60;;;1.08;;
68216;SDS011;55037;52.354;4.992;2024-03-02T01:52:07;1.20;;;0.70;;
68216;SDS011;55037;52.354;4.992;2024-03-02T01:54:35;1.63;;;1.10;;
68216;SDS011;55037;52.354;4.992;2024-03-02T01:57:02;1.63;;;1.00;;
68216;SDS011;55037;52.354;4.992;2024-03-02T01:59:30;1.77;;;0.98;;
68216;SDS011;55037;52.354;4.992;2024-03-02T02:01:58;1.30;;;0.80;;
68216;SDS011;55037;52.354;4.992;2024-03-02T02:04:25;1.42;;;0.93;;
68216;SDS011;55037;52.354;4.992;2024-03-02T02:06:54;1.40;;;0.90;;
68216;SDS011;55037;52.354;4.992;2024-03-02T02:09:22;1.60;;;1.00;;
68216;SDS011;55037;52.354;4.992;2024-03-02T02:11:50;1.60;;;1.25;;
68216;SDS011;55037;52.354;4.992;2024-03-02T02:14:18;1.50;;;0.88;;
68216;SDS011;55037;52.354;4.992;2024-03-02T02:16:47;1.55;;;1.17;;
68216;SDS011;55037;52.354;4.992;2024-03-02T02:19:15;1.95;;;1.20;;
68216;SDS011;55037;52.354;4.992;2024-03-02T02:21:43;1.57;;;0.90;;
68216;SDS011;55037;52.354;4.992;2024-03-02T02:24:10;1.65;;;1.10;;
68216;SDS011;55037;52.354;4.992;2024-03-02T02:26:39;2.00;;;1.20;;
68216;SDS011;55037;52.354;4.992;2024-03-02T02:29:07;1.70;;;1.00;;
68216;SDS011;55037;52.354;4.992;2024-03-02T02:31:38;1.50;;;0.90;;
68216;SDS011;55037;52.354;4.992;2024-03-02T02:34:06;1.60;;;1.03;;
68216;SDS011;55037;52.354;4.992;2024-03-02T02:36:33;1.67;;;0.90;;
68216;SDS011;55037;52.354;4.992;2024-03-02T02:39:02;1.33;;;0.70;;
68216;SDS011;55037;52.354;4.992;2024-03-02T02:41:30;1.52;;;0.90;;
68216;SDS011;55037;52.354;4.992;2024-03-02T02:43:57;1.77;;;1.00;;
68216;SDS011;55037;52.354;4.992;2024-03-02T02:46:25;1.43;;;1.00;;
68216;SDS011;55037;52.354;4.992;2024-03-02T02:48:53;13.05;;;1.02;;
68216;SDS011;55037;52.354;4.992;2024-03-02T02:51:20;1.05;;;0.70;;
68216;SDS011;55037;52.354;4.992;2024-03-02T02:53:48;1.33;;;0.88;;
68216;SDS011;55037;52.354;4.992;2024-03-02T02:56:15;1.17;;;0.70;;
68216;SDS011;55037;52.354;4.992;2024-03-02T02:58:43;1.37;;;0.80;;
68216;SDS011;55037;52.354;4.992;2024-03-02T03:01:11;1.30;;;0.70;;
68216;SDS011;55037;52.354;4.992;2024-03-02T03:03:39;1.55;;;0.93;;
68216;SDS011;55037;52.354;4.992;2024-03-02T03:06:06;1.58;;;1.10;;
68216;SDS011;55037;52.354;4.992;2024-03-02T03:08:34;1.75;;;0.82;;
68216;SDS011;55037;52.354;4.992;2024-03-02T03:11:01;1.80;;;0.90;;
68216;SDS011;55037;52.354;4.992;2024-03-02T03:13:29;1.17;;;0.70;;
68216;SDS011;55037;52.354;4.992;2024-03-02T03:15:57;1.02;;;0.63;;
68216;SDS011;55037;52.354;4.992;2024-03-02T03:18:24;1.45;;;0.90;;
68216;SDS011;55037;52.354;4.992;2024-03-02T03:20:52;1.58;;;1.10;;
68216;SDS011;55037;52.354;4.992;2024-03-02T03:23:19;1.23;;;0.83;;
68216;SDS011;55037;52.354;4.992;2024-03-02T03:25:47;3.25;;;1.00;;
68216;SDS011;55037;52.354;4.992;2024-03-02T03:28:15;1.40;;;0.90;;
68216;SDS011;55037;52.354;4.992;2024-03-02T03:30:42;2.33;;;1.05;;
68216;SDS011;55037;52.354;4.992;2024-03-02T03:33:10;1.65;;;0.90;;
68216;SDS011;55037;52.354;4.992;2024-03-02T03:35:37;2.20;;;0.90;;
68216;SDS011;55037;52.354;4.992;2024-03-02T03:38:05;1.65;;;0.73;;
68216;SDS011;55037;52.354;4.992;2024-03-02T03:40:33;1.98;;;0.85;;
68216;SDS011;55037;52.354;4.992;2024-03-02T03:43:00;6.57;;;1.02;;
68216;SDS011;55037;52.354;4.992;2024-03-02T03:45:28;1.48;;;0.90;;
68216;SDS011;55037;52.354;4.992;2024-03-02T03:47:57;2.57;;;0.80;;
68216;SDS011;55037;52.354;4.992;2024-03-02T03:50:24;1.40;;;0.80;;
68216;SDS011;55037;52.354;4.992;2024-03-02T03:52:52;1.73;;;0.90;;
68216;SDS011;55037;52.354;4.992;2024-03-02T03:55:20;1.25;;;0.70;;
68216;SDS011;55037;52.354;4.992;2024-03-02T03:57:47;1.40;;;0.85;;
68216;SDS011;55037;52.354;4.992;2024-03-02T04:00:15;1.30;;;0.70;;
68216;SDS011;55037;52.354;4.992;2024-03-02T04:02:42;1.20;;;0.88;;
68216;SDS011;55037;52.354;4.992;2024-03-02T04:05:10;1.40;;;0.80;;
68216;SDS011;55037;52.354;4.992;2024-03-02T04:07:38;1.85;;;0.80;;
68216;SDS011;55037;52.354;4.992;2024-03-02T04:10:10;1.20;;;0.80;;
68216;SDS011;55037;52.354;4.992;2024-03-02T04:12:39;1.10;;;0.60;;
68216;SDS011;55037;52.354;4.992;2024-03-02T04:15:07;1.73;;;1.10;;
68216;SDS011;55037;52.354;4.992;2024-03-02T04:17:34;1.80;;;0.70;;
68216;SDS011;55037;52.354;4.992;2024-03-02T04:20:03;1.38;;;0.90;;
68216;SDS011;55037;52.354;4.992;2024-03-02T04:22:34;2.08;;;0.88;;
68216;SDS011;55037;52.354;4.992;2024-03-02T04:25:02;1.10;;;0.70;;
68216;SDS011;55037;52.354;4.992;2024-03-02T04:27:31;1.63;;;1.00;;
68216;SDS011;55037;52.354;4.992;2024-03-02T04:30:00;1.63;;;0.88;;
68216;SDS011;55037;52.354;4.992;2024-03-02T04:32:27;1.63;;;1.00;;
68216;SDS011;55037;52.354;4.992;2024-03-02T04:34:55;1.65;;;1.05;;
68216;SDS011;55037;52.354;4.992;2024-03-02T04:37:22;1.10;;;0.70;;
68216;SDS011;55037;52.354;4.992;2024-03-02T04:39:50;1.33;;;0.88;;
68216;SDS011;55037;52.354;4.992;2024-03-02T04:42:18;1.30;;;0.70;;
68216;SDS011;55037;52.354;4.992;2024-03-02T04:44:45;1.70;;;1.05;;
68216;SDS011;55037;52.354;4.992;2024-03-02T04:47:13;2.00;;;0.77;;
68216;SDS011;55037;52.354;4.992;2024-03-02T04:49:41;1.70;;;1.00;;
68216;SDS011;55037;52.354;4.992;2024-03-02T04:52:08;1.23;;;0.90;;
68216;SDS011;55037;52.354;4.992;2024-03-02T04:54:36;1.63;;;1.02;;
68216;SDS011;55037;52.354;4.992;2024-03-02T04:57:24;1.80;;;0.88;;
68216;SDS011;55037;52.354;4.992;2024-03-02T04:59:51;3.33;;;0.88;;
68216;SDS011;55037;52.354;4.992;2024-03-02T05:02:19;2.20;;;1.20;;
68216;SDS011;55037;52.354;4.992;2024-03-02T05:04:46;1.98;;;0.93;;
68216;SDS011;55037;52.354;4.992;2024-03-02T05:07:15;2.58;;;1.10;;
68216;SDS011;55037;52.354;4.992;2024-03-02T05:09:42;1.55;;;0.77;;
68216;SDS011;55037;52.354;4.992;2024-03-02T05:12:10;1.35;;;0.80;;
68216;SDS011;55037;52.354;4.992;2024-03-02T05:15:16;1.43;;;0.93;;
68216;SDS011;55037;52.354;4.992;2024-03-02T05:17:43;1.30;;;0.88;;
68216;SDS011;55037;52.354;4.992;2024-03-02T05:20:11;1.10;;;0.68;;
68216;SDS011;55037;52.354;4.992;2024-03-02T05:22:39;1.52;;;1.15;;
68216;SDS011;55037;52.354;4.992;2024-03-02T05:25:07;4.72;;;1.02;;
68216;SDS011;55037;52.354;4.992;2024-03-02T05:27:36;1.20;;;0.70;;
68216;SDS011;55037;52.354;4.992;2024-03-02T05:30:04;1.35;;;0.90;;
68216;SDS011;55037;52.354;4.992;2024-03-02T05:32:33;1.30;;;0.73;;
68216;SDS011;55037;52.354;4.992;2024-03-02T05:35:01;1.70;;;0.80;;
68216;SDS011;55037;52.354;4.992;2024-03-02T05:37:29;1.20;;;0.70;;
68216;SDS011;55037;52.354;4.992;2024-03-02T05:39:57;1.63;;;0.80;;
68216;SDS011;55037;52.354;4.992;2024-03-02T05:42:26;1.30;;;0.85;;
68216;SDS011;55037;52.354;4.992;2024-03-02T05:44:54;1.52;;;0.70;;
68216;SDS011;55037;52.354;4.992;2024-03-02T05:47:22;1.00;;;0.52;;
68216;SDS011;55037;52.354;4.992;2024-03-02T05:49:49;1.85;;;0.75;;
68216;SDS011;55037;52.354;4.992;2024-03-02T05:52:17;1.40;;;0.83;;
68216;SDS011;55037;52.354;4.992;2024-03-02T05:54:44;1.05;;;0.68;;
68216;SDS011;55037;52.354;4.992;2024-03-02T05:57:12;1.85;;;0.77;;
68216;SDS011;55037;52.354;4.992;2024-03-02T06:00:05;1.40;;;0.88;;
68216;SDS011;55037;52.354;4.992;2024-03-02T06:02:41;2.35;;;0.85;;
68216;SDS011;55037;52.354;4.992;2024-03-02T06:05:08;1.10;;;0.60;;
68216;SDS011;55037;52.354;4.992;2024-03-02T06:07:36;1.95;;;0.80;;
68216;SDS011;55037;52.354;4.992;2024-03-02T06:10:04;1.42;;;1.02;;
68216;SDS011;55037;52.354;4.992;2024-03-02T06:12:37;1.10;;;0.70;;
68216;SDS011;55037;52.354;4.992;2024-03-02T06:15:05;1.45;;;0.80;;
68216;SDS011;55037;52.354;4.992;2024-03-02T06:17:34;1.50;;;0.80;;
68216;SDS011;55037;52.354;4.992;2024-03-02T06:20:02;2.67;;;1.27;;
68216;SDS011;55037;52.354;4.992;2024-03-02T06:22:30;2.00;;;0.90;;
68216;SDS011;55037;52.354;4.992;2024-03-02T06:24:57;1.70;;;1.13;;
68216;SDS011;55037;52.354;4.992;2024-03-02T06:27:25;1.50;;;0.70;;
68216;SDS011;55037;52.354;4.992;2024-03-02T06:29:52;1.20;;;0.73;;
68216;SDS011;55037;52.354;4.992;2024-03-02T06:32:21;2.85;;;0.70;;
68216;SDS011;55037;52.354;4.992;2024-03-02T06:34:49;2.63;;;0.90;;
68216;SDS011;55037;52.354;4.992;2024-03-02T06:37:17;1.20;;;0.63;;
68216;SDS011;55037;52.354;4.992;2024-03-02T06:39:44;1.02;;;0.70;;
68216;SDS011;55037;52.354;4.992;2024-03-02T06:42:12;1.00;;;0.60;;
68216;SDS011;55037;52.354;4.992;2024-03-02T06:44:40;1.85;;;1.23;;
68216;SDS011;55037;52.354;4.992;2024-03-02T06:47:07;2.25;;;0.60;;
68216;SDS011;55037;52.354;4.992;2024-03-02T06:49:35;2.67;;;1.20;;
68216;SDS011;55037;52.354;4.992;2024-03-02T06:52:02;3.45;;;0.90;;
68216;SDS011;55037;52.354;4.992;2024-03-02T06:54:30;1.77;;;0.87;;
68216;SDS011;55037;52.354;4.992;2024-03-02T06:56:58;1.55;;;0.70;;
68216;SDS011;55037;52.354;4.992;2024-03-02T06:59:25;1.70;;;0.80;;
68216;SDS011;55037;52.354;4.992;2024-03-02T07:01:53;4.32;;;1.13;;
68216;SDS011;55037;52.354;4.992;2024-03-02T07:04:20;1.63;;;0.80;;
68216;SDS011;55037;52.354;4.992;2024-03-02T07:06:48;1.97;;;0.97;;
68216;SDS011;55037;52.354;4.992;2024-03-02T07:09:15;4.05;;;0.93;;
68216;SDS011;55037;52.354;4.992;2024-03-02T07:11:43;3.08;;;0.88;;
68216;SDS011;55037;52.354;4.992;2024-03-02T07:14:14;1.48;;;0.80;;
68216;SDS011;55037;52.354;4.992;2024-03-02T07:16:41;1.60;;;0.80;;
68216;SDS011;55037;52.354;4.992;2024-03-02T07:19:09;2.50;;;0.97;;
68216;SDS011;55037;52.354;4.992;2024-03-02T07:21:37;1.67;;;1.17;;
68216;SDS011;55037;52.354;4.992;2024-03-02T07:24:05;2.42;;;0.70;;
68216;SDS011;55037;52.354;4.992;2024-03-02T07:26:35;1.60;;;0.98;;
68216;SDS011;55037;52.354;4.992;2024-03-02T07:29:06;3.72;;;1.00;;
68216;SDS011;55037;52.354;4.992;2024-03-02T07:31:33;1.53;;;0.70;;
68216;SDS011;55037;52.354;4.992;2024-03-02T07:34:02;1.73;;;0.95;;
68216;SDS011;55037;52.354;4.992;2024-03-02T07:36:30;2.65;;;0.90;;
68216;SDS011;55037;52.354;4.992;2024-03-02T07:38:57;2.28;;;1.00;;
68216;SDS011;55037;52.354;4.992;2024-03-02T07:41:25;1.98;;;0.85;;
68216;SDS011;55037;52.354;4.992;2024-03-02T07:43:52;1.10;;;0.60;;
68216;SDS011;55037;52.354;4.992;2024-03-02T07:46:20;1.27;;;0.70;;
68216;SDS011;55037;52.354;4.992;2024-03-02T07:48:48;1.00;;;0.60;;
68216;SDS011;55037;52.354;4.992;2024-03-02T07:51:18;1.50;;;0.80;;
68216;SDS011;55037;52.354;4.992;2024-03-02T07:53:46;2.33;;;1.10;;
68216;SDS011;55037;52.354;4.992;2024-03-02T07:56:13;2.20;;;1.10;;
68216;SDS011;55037;52.354;4.992;2024-03-02T07:58:48;2.00;;;1.00;;
68216;SDS011;55037;52.354;4.992;2024-03-02T08:01:16;3.72;;;0.90;;
68216;SDS011;55037;52.354;4.992;2024-03-02T08:03:44;1.60;;;0.90;;
68216;SDS011;55037;52.354;4.992;2024-03-02T08:06:17;1.48;;;0.98;;
68216;SDS011;55037;52.354;4.992;2024-03-02T08:08:47;2.67;;;1.00;;
68216;SDS011;55037;52.354;4.992;2024-03-02T08:11:15;1.52;;;1.08;;
68216;SDS011;55037;52.354;4.992;2024-03-02T08:13:42;1.90;;;0.98;;
68216;SDS011;55037;52.354;4.992;2024-03-02T08:16:10;5.95;;;1.23;;
68216;SDS011;55037;52.354;4.992;2024-03-02T08:18:37;1.45;;;0.80;;
68216;SDS011;55037;52.354;4.992;2024-03-02T08:21:05;2.63;;;0.83;;
68216;SDS011;55037;52.354;4.992;2024-03-02T08:23:34;1.40;;;0.90;;
68216;SDS011;55037;52.354;4.992;2024-03-02T08:26:02;1.67;;;0.90;;
68216;SDS011;55037;52.354;4.992;2024-03-02T08:28:30;1.50;;;0.90;;
68216;SDS011;55037;52.354;4.992;2024-03-02T08:30:58;2.53;;;1.20;;
68216;SDS011;55037;52.354;4.992;2024-03-02T08:33:26;1.40;;;0.70;;
68216;SDS011;55037;52.354;4.992;2024-03-02T08:35:54;4.50;;;1.10;;
68216;SDS011;55037;52.354;4.992;2024-03-02T08:38:21;1.55;;;0.73;;
68216;SDS011;55037;52.354;4.992;2024-03-02T08:40:49;3.42;;;1.10;;
68216;SDS011;55037;52.354;4.992;2024-03-02T08:43:17;2.65;;;1.52;;
68216;SDS011;55037;52.354;4.992;2024-03-02T08:45:45;3.17;;;1.20;;
68216;SDS011;55037;52.354;4.992;2024-03-02T08:48:14;4.05;;;1.48;;
68216;SDS011;55037;52.354;4.992;2024-03-02T08:50:41;2.80;;;1.20;;
68216;SDS011;55037;52.354;4.992;2024-03-02T08:53:09;2.75;;;1.27;;
68216;SDS011;55037;52.354;4.992;2024-03-02T08:55:36;4.18;;;1.30;;
68216;SDS011;55037;52.354;4.992;2024-03-02T08:58:04;2.37;;;1.53;;
68216;SDS011;55037;52.354;4.992;2024-03-02T09:00:31;2.08;;;1.10;;
68216;SDS011;55037;52.354;4.992;2024-03-02T09:02:59;3.92;;;1.20;;
68216;SDS011;55037;52.354;4.992;2024-03-02T09:05:27;1.67;;;1.00;;
68216;SDS011;55037;52.354;4.992;2024-03-02T09:07:55;2.15;;;0.95;;
68216;SDS011;55037;52.354;4.992;2024-03-02T09:10:22;2.65;;;1.05;;
68216;SDS011;55037;52.354;4.992;2024-03-02T09:12:54;2.28;;;1.13;;
68216;SDS011;55037;52.354;4.992;2024-03-02T09:15:21;2.67;;;1.38;;
68216;SDS011;55037;52.354;4.992;2024-03-02T09:17:49;3.45;;;1.40;;
68216;SDS011;55037;52.354;4.992;2024-03-02T09:20:17;3.42;;;1.45;;
68216;SDS011;55037;52.354;4.992;2024-03-02T09:22:44;2.25;;;1.30;;
68216;SDS011;55037;52.354;4.992;2024-03-02T09:25:14;2.67;;;1.00;;
68216;SDS011;55037;52.354;4.992;2024-03-02T09:27:42;14.55;;;1.67;;
68216;SDS011;55037;52.354;4.992;2024-03-02T09:30:10;3.00;;;1.45;;
68216;SDS011;55037;52.354;4.992;2024-03-02T09:32:38;1.98;;;1.10;;
68216;SDS011;55037;52.354;4.992;2024-03-02T09:35:05;2.22;;;1.33;;
68216;SDS011;55037;52.354;4.992;2024-03-02T09:37:33;3.00;;;1.25;;
68216;SDS011;55037;52.354;4.992;2024-03-02T09:40:01;4.45;;;1.27;;
68216;SDS011;55037;52.354;4.992;2024-03-02T09:42:29;5.30;;;1.30;;
68216;SDS011;55037;52.354;4.992;2024-03-02T09:44:57;6.80;;;1.75;;
68216;SDS011;55037;52.354;4.992;2024-03-02T09:47:24;4.25;;;1.20;;
68216;SDS011;55037;52.354;4.992;2024-03-02T09:49:52;3.95;;;1.13;;
68216;SDS011;55037;52.354;4.992;2024-03-02T09:52:20;3.00;;;1.25;;
68216;SDS011;55037;52.354;4.992;2024-03-02T09:54:48;5.90;;;1.67;;
68216;SDS011;55037;52.354;4.992;2024-03-02T09:57:15;3.30;;;1.35;;
68216;SDS011;55037;52.354;4.992;2024-03-02T09:59:43;7.53;;;1.55;;
68216;SDS011;55037;52.354;4.992;2024-03-02T10:02:12;4.85;;;1.10;;
68216;SDS011;55037;52.354;4.992;2024-03-02T10:04:39;2.97;;;1.55;;
68216;SDS011;55037;52.354;4.992;2024-03-02T10:07:11;6.10;;;1.35;;
68216;SDS011;55037;52.354;4.992;2024-03-02T10:09:38;3.88;;;1.48;;
68216;SDS011;55037;52.354;4.992;2024-03-02T10:12:07;2.30;;;1.40;;
68216;SDS011;55037;52.354;4.992;2024-03-02T10:14:35;3.05;;;1.38;;
68216;SDS011;55037;52.354;4.992;2024-03-02T10:17:07;3.38;;;1.48;;
68216;SDS011;55037;52.354;4.992;2024-03-02T10:19:36;3.13;;;1.30;;
68216;SDS011;55037;52.354;4.992;2024-03-02T10:22:04;2.78;;;1.45;;
68216;SDS011;55037;52.354;4.992;2024-03-02T10:24:39;3.13;;;1.85;;
68216;SDS011;55037;52.354;4.992;2024-03-02T10:27:10;3.00;;;1.73;;
68216;SDS011;55037;52.354;4.992;2024-03-02T10:29:42;2.65;;;1.25;;
68216;SDS011;55037;52.354;4.992;2024-03-02T10:32:10;1.48;;;1.00;;
68216;SDS011;55037;52.354;4.992;2024-03-02T10:34:42;2.28;;;1.55;;
68216;SDS011;55037;52.354;4.992;2024-03-02T10:37:10;2.58;;;1.23;;
68216;SDS011;55037;52.354;4.992;2024-03-02T10:39:39;3.75;;;1.70;;
68216;SDS011;55037;52.354;4.992;2024-03-02T10:42:07;3.80;;;1.30;;
68216;SDS011;55037;52.354;4.992;2024-03-02T10:44:35;4.47;;;1.85;;
68216;SDS011;55037;52.354;4.992;2024-03-02T10:47:03;3.42;;;1.63;;
68216;SDS011;55037;52.354;4.992;2024-03-02T10:49:32;6.68;;;1.10;;
68216;SDS011;55037;52.354;4.992;2024-03-02T10:52:00;2.95;;;1.30;;
68216;SDS011;55037;52.354;4.992;2024-03-02T10:54:28;3.65;;;1.40;;
68216;SDS011;55037;52.354;4.992;2024-03-02T10:57:03;2.75;;;1.30;;
68216;SDS011;55037;52.354;4.992;2024-03-02T10:59:35;3.35;;;1.10;;
68216;SDS011;55037;52.354;4.992;2024-03-02T11:02:05;4.63;;;1.58;;
68216;SDS011;55037;52.354;4.992;2024-03-02T11:04:35;6.55;;;1.20;;
68216;SDS011;55037;52.354;4.992;2024-03-02T11:07:10;6.05;;;1.77;;
68216;SDS011;55037;52.354;4.992;2024-03-02T11:09:41;1.95;;;1.27;;
68216;SDS011;55037;52.354;4.992;2024-03-02T11:14:55;2.40;;;1.40;;
68216;SDS011;55037;52.354;4.992;2024-03-02T11:17:23;2.15;;;1.10;;
68216;SDS011;55037;52.354;4.992;2024-03-02T11:19:52;3.97;;;1.42;;
68216;SDS011;55037;52.354;4.992;2024-03-02T11:22:20;2.45;;;1.00;;
68216;SDS011;55037;52.354;4.992;2024-03-02T11:24:48;2.72;;;1.45;;
68216;SDS011;55037;52.354;4.992;2024-03-02T11:27:59;2.65;;;1.08;;
68216;SDS011;55037;52.354;4.992;2024-03-02T11:30:04;3.60;;;1.42;;
68216;SDS011;55037;52.354;4.992;2024-03-02T11:32:34;2.88;;;1.45;;
68216;SDS011;55037;52.354;4.992;2024-03-02T11:35:02;2.20;;;1.60;;
68216;SDS011;55037;52.354;4.992;2024-03-02T11:37:30;3.22;;;1.50;;
68216;SDS011;55037;52.354;4.992;2024-03-02T11:39:57;2.03;;;1.17;;
68216;SDS011;55037;52.354;4.992;2024-03-02T11:42:25;3.92;;;1.55;;
68216;SDS011;55037;52.354;4.992;2024-03-02T11:44:53;2.70;;;1.50;;
68216;SDS011;55037;52.354;4.992;2024-03-02T11:47:23;3.97;;;1.13;;
68216;SDS011;55037;52.354;4.992;2024-03-02T11:49:52;1.95;;;1.10;;
68216;SDS011;55037;52.354;4.992;2024-03-02T11:52:19;2.42;;;1.30;;
68216;SDS011;55037;52.354;4.992;2024-03-02T11:54:48;3.53;;;1.40;;
68216;SDS011;55037;52.354;4.992;2024-03-02T11:57:18;1.90;;;1.33;;
68216;SDS011;55037;52.354;4.992;2024-03-02T11:59:46;3.65;;;1.25;;
68216;SDS011;55037;52.354;4.992;2024-03-02T12:02:14;3.17;;;1.70;;
68216;SDS011;55037;52.354;4.992;2024-03-02T12:04:43;2.38;;;1.30;;
68216;SDS011;55037;52.354;4.992;2024-03-02T12:07:11;3.30;;;1.55;;
68216;SDS011;55037;52.354;4.992;2024-03-02T12:09:39;1.90;;;1.30;;
68216;SDS011;55037;52.354;4.992;2024-03-02T12:12:10;2.97;;;1.58;;
68216;SDS011;55037;52.354;4.992;2024-03-02T12:14:38;2.63;;;1.17;;
68216;SDS011;55037;52.354;4.992;2024-03-02T12:17:06;3.22;;;1.50;;
68216;SDS011;55037;52.354;4.992;2024-03-02T12:19:34;2.55;;;1.20;;
68216;SDS011;55037;52.354;4.992;2024-03-02T12:22:01;2.40;;;1.23;;
68216;SDS011;55037;52.354;4.992;2024-03-02T12:24:29;1.98;;;1.20;;
68216;SDS011;55037;52.354;4.992;2024-03-02T12:26:57;3.53;;;1.40;;
68216;SDS011;55037;52.354;4.992;2024-03-02T12:29:26;3.13;;;1.45;;
68216;SDS011;55037;52.354;4.992;2024-03-02T12:31:54;1.73;;;1.30;;
68216;SDS011;55037;52.354;4.992;2024-03-02T12:34:21;2.58;;;1.63;;
68216;SDS011;55037;52.354;4.992;2024-03-02T12:36:50;2.20;;;1.48;;
68216;SDS011;55037;52.354;4.992;2024-03-02T12:39:20;2.95;;;1.60;;
68216;SDS011;55037;52.354;4.992;2024-03-02T12:41:50;2.50;;;1.20;;
68216;SDS011;55037;52.354;4.992;2024-03-02T12:44:20;2.35;;;1.48;;
68216;SDS011;55037;52.354;4.992;2024-03-02T12:46:52;2.40;;;1.15;;
68216;SDS011;55037;52.354;4.992;2024-03-02T12:49:24;1.92;;;1.10;;
68216;SDS011;55037;52.354;4.992;2024-03-02T12:51:53;2.83;;;1.65;;
68216;SDS011;55037;52.354;4.992;2024-03-02T12:54:21;3.08;;;1.60;;
68216;SDS011;55037;52.354;4.992;2024-03-02T12:56:51;2.22;;;1.27;;
68216;SDS011;55037;52.354;4.992;2024-03-02T12:59:21;2.20;;;1.20;;
68216;SDS011;55037;52.354;4.992;2024-03-02T13:01:49;2.25;;;1.20;;
68216;SDS011;55037;52.354;4.992;2024-03-02T13:04:21;2.70;;;1.50;;
68216;SDS011;55037;52.354;4.992;2024-03-02T13:06:49;2.53;;;1.13;;
68216;SDS011;55037;52.354;4.992;2024-03-02T13:09:18;2.35;;;1.55;;
68216;SDS011;55037;52.354;4.992;2024-03-02T13:11:46;2.28;;;1.30;;
68216;SDS011;55037;52.354;4.992;2024-03-02T13:14:14;4.00;;;1.33;;
68216;SDS011;55037;52.354;4.992;2024-03-02T13:16:45;1.80;;;1.20;;
68216;SDS011;55037;52.354;4.992;2024-03-02T13:19:14;1.88;;;1.20;;
68216;SDS011;55037;52.354;4.992;2024-03-02T13:21:42;1.75;;;1.10;;
68216;SDS011;55037;52.354;4.992;2024-03-02T13:24:10;2.38;;;1.33;;
68216;SDS011;55037;52.354;4.992;2024-03-02T13:26:38;2.35;;;1.35;;
68216;SDS011;55037;52.354;4.992;2024-03-02T13:29:07;1.92;;;1.23;;
68216;SDS011;55037;52.354;4.992;2024-03-02T13:31:34;2.72;;;1.40;;
68216;SDS011;55037;52.354;4.992;2024-03-02T13:34:02;2.63;;;1.23;;
68216;SDS011;55037;52.354;4.992;2024-03-02T13:36:30;2.67;;;1.33;;
68216;SDS011;55037;52.354;4.992;2024-03-02T13:38:57;1.83;;;0.93;;
68216;SDS011;55037;52.354;4.992;2024-03-02T13:41:25;3.75;;;1.25;;
68216;SDS011;55037;52.354;4.992;2024-03-02T13:43:52;4.70;;;1.50;;
68216;SDS011;55037;52.354;4.992;2024-03-02T13:46:20;2.28;;;1.35;;
68216;SDS011;55037;52.354;4.992;2024-03-02T13:48:48;2.50;;;1.30;;
68216;SDS011;55037;52.354;4.992;2024-03-02T13:51:16;4.43;;;1.60;;
68216;SDS011;55037;52.354;4.992;2024-03-02T13:53:44;5.32;;;1.52;;
68216;SDS011;55037;52.354;4.992;2024-03-02T13:56:11;2.92;;;1.40;;
68216;SDS011;55037;52.354;4.992;2024-03-02T13:58:39;3.58;;;1.35;;
68216;SDS011;55037;52.354;4.992;2024-03-02T14:01:07;1.98;;;1.00;;
68216;SDS011;55037;52.354;4.992;2024-03-02T14:03:34;1.23;;;0.80;;
68216;SDS011;55037;52.354;4.992;2024-03-02T14:06:02;2.33;;;1.30;;
68216;SDS011;55037;52.354;4.992;2024-03-02T14:08:30;2.25;;;1.10;;
68216;SDS011;55037;52.354;4.992;2024-03-02T14:11:00;3.45;;;1.63;;
68216;SDS011;55037;52.354;4.992;2024-03-02T14:13:29;3.55;;;1.00;;
68216;SDS011;55037;52.354;4.992;2024-03-02T14:15:56;1.42;;;0.90;;
68216;SDS011;55037;52.354;4.992;2024-03-02T14:18:25;3.55;;;1.45;;
68216;SDS011;55037;52.354;4.992;2024-03-02T14:20:52;3.85;;;1.20;;
68216;SDS011;55037;52.354;4.992;2024-03-02T14:23:20;1.90;;;1.20;;
68216;SDS011;55037;52.354;4.992;2024-03-02T14:25:47;2.20;;;1.00;;
68216;SDS011;55037;52.354;4.992;2024-03-02T14:28:15;3.75;;;1.05;;
68216;SDS011;55037;52.354;4.992;2024-03-02T14:31:03;4.65;;;1.30;;
68216;SDS011;55037;52.354;4.992;2024-03-02T14:33:31;2.75;;;1.17;;
68216;SDS011;55037;52.354;4.992;2024-03-02T14:35:58;1.95;;;1.25;;
68216;SDS011;55037;52.354;4.992;2024-03-02T14:38:26;2.88;;;1.20;;
68216;SDS011;55037;52.354;4.992;2024-03-02T14:40:54;3.78;;;1.30;;
68216;SDS011;55037;52.354;4.992;2024-03-02T14:43:21;3.55;;;1.23;;
68216;SDS011;55037;52.354;4.992;2024-03-02T14:45:49;4.53;;;1.63;;
68216;SDS011;55037;52.354;4.992;2024-03-02T14:48:17;2.55;;;1.00;;
68216;SDS011;55037;52.354;4.992;2024-03-02T14:50:44;1.70;;;1.13;;
68216;SDS011;55037;52.354;4.992;2024-03-02T14:53:12;4.45;;;1.50;;
68216;SDS011;55037;52.354;4.992;2024-03-02T14:55:40;2.28;;;1.23;;
68216;SDS011;55037;52.354;4.992;2024-03-02T14:58:07;3.17;;;1.38;;